Time;durP1;ratioP1;P1;durP2;ratioP2;P2;SDS_P1;SDS_P2;PMS_P1;PMS_P2;Temp;Humidity;BMP_temperature;BMP_pressure;BME280_temperature;BME280_humidity;BME280_pressure;Samples;Min_cycle;Max_cycle;Signal;HPM_P1;HPM_P2
2023/12/09 00:01:19;;;;;;;42.80;18.70;;;;;;;4.24;90.28;99888.03;3166328;28;20475;-68
2023/12/09 00:02:51;;;;;;;41.53;18.30;;;;;;;4.25;90.46;99894.88;3160780;28;20070;-68
2023/12/09 00:04:23;;;;;;;41.80;19.48;;;;;;;4.27;90.45;99893.97;3157983;28;20056;-68
2023/12/09 00:05:55;;;;;;;46.00;21.80;;;;;;;4.29;90.39;99893.97;3157541;28;20046;-68
2023/12/09 00:07:25;;;;;;;47.92;20.30;;;;;;;4.30;90.32;99893.91;3157782;28;20052;-68
2023/12/09 00:08:57;;;;;;;44.38;20.42;;;;;;;4.30;90.37;99891.34;3159748;28;20047;-68
2023/12/09 00:10:28;;;;;;;47.35;21.27;;;;;;;4.29;90.44;99896.53;3165397;28;20044;-68
2023/12/09 00:11:59;;;;;;;47.50;20.55;;;;;;;4.28;90.46;99898.25;3163982;28;20059;-69
2023/12/09 00:13:31;;;;;;;47.00;19.70;;;;;;;4.30;90.26;99899.06;3165783;28;20044;-68
2023/12/09 00:15:04;;;;;;;45.15;20.75;;;;;;;4.29;90.43;99891.38;3160711;28;20050;-68
2023/12/09 00:16:35;;;;;;;47.08;20.42;;;;;;;4.28;90.46;99892.25;3167448;28;20692;-68
2023/12/09 00:18:06;;;;;;;44.45;20.23;;;;;;;4.29;90.60;99889.66;3154956;28;20056;-68
2023/12/09 00:19:40;;;;;;;48.60;20.83;;;;;;;4.34;90.50;99895.53;3164715;28;20055;-68
2023/12/09 00:21:10;;;;;;;43.10;19.58;;;;;;;4.34;90.57;99892.13;3165169;28;20063;-68
2023/12/09 00:22:42;;;;;;;48.67;20.13;;;;;;;4.35;90.47;99888.69;3164857;28;20484;-68
2023/12/09 00:24:14;;;;;;;49.08;20.05;;;;;;;4.37;90.60;99896.38;3152837;28;20349;-68
2023/12/09 00:25:45;;;;;;;43.30;19.60;;;;;;;4.38;90.42;99896.38;3156175;28;20152;-68
2023/12/09 00:27:17;;;;;;;43.25;18.63;;;;;;;4.40;90.42;99894.59;3155576;28;20195;-68
2023/12/09 00:28:48;;;;;;;45.58;19.45;;;;;;;4.40;90.50;99893.75;3161820;28;20261;-68
2023/12/09 00:30:21;;;;;;;42.97;19.30;;;;;;;4.43;90.39;99904.00;3164779;28;20111;-68
2023/12/09 00:31:52;;;;;;;48.33;20.38;;;;;;;4.41;90.37;99898.88;3164654;28;20047;-67
2023/12/09 00:33:23;;;;;;;39.95;18.33;;;;;;;4.44;90.41;99914.31;3157835;28;20054;-67
2023/12/09 00:34:56;;;;;;;45.10;20.23;;;;;;;4.45;90.32;99908.25;3158370;28;20048;-68
2023/12/09 00:36:28;;;;;;;43.28;19.58;;;;;;;4.45;90.39;99907.41;3158622;28;20104;-68
2023/12/09 00:37:59;;;;;;;44.72;18.98;;;;;;;4.45;90.42;99910.84;3151980;28;20145;-68
2023/12/09 00:39:31;;;;;;;46.40;20.35;;;;;;;4.46;90.53;99915.09;3155922;28;20526;-68
2023/12/09 00:41:02;;;;;;;45.03;19.55;;;;;;;4.01;90.39;99840.31;3159583;28;20065;-68
2023/12/09 00:42:34;;;;;;;40.28;18.67;;;;;;;4.45;90.39;99912.56;3163019;28;20095;-68
2023/12/09 00:44:05;;;;;;;48.40;18.35;;;;;;;4.45;90.39;99912.56;3163388;28;20048;-68
2023/12/09 00:45:36;;;;;;;42.72;18.27;;;;;;;4.45;90.34;99912.56;3151794;28;20051;-68
2023/12/09 00:47:08;;;;;;;43.92;18.33;;;;;;;4.42;90.39;99913.47;3152322;28;20279;-68
2023/12/09 00:48:40;;;;;;;40.40;17.65;;;;;;;4.46;90.51;99917.69;3164422;28;20624;-68
2023/12/09 00:50:13;;;;;;;44.42;19.65;;;;;;;4.43;90.55;99909.16;3152282;28;20560;-68
2023/12/09 00:51:44;;;;;;;49.00;20.52;;;;;;;4.47;90.27;99911.66;3152007;28;20538;-71
2023/12/09 00:53:15;;;;;;;43.58;18.48;;;;;;;4.48;90.34;99917.66;3151925;28;20048;-71
2023/12/09 00:54:47;;;;;;;43.28;20.20;;;;;;;4.48;90.19;99915.94;3151904;28;20074;-71
2023/12/09 00:56:18;;;;;;;40.78;19.15;;;;;;;4.49;90.30;99920.19;3151776;28;20798;-71
2023/12/09 00:57:49;;;;;;;42.55;19.45;;;;;;;4.50;90.31;99921.94;3155938;28;20081;-71
2023/12/09 00:59:21;;;;;;;43.35;19.17;;;;;;;4.51;90.22;99918.44;3158389;28;20516;-71
2023/12/09 01:00:52;;;;;;;44.65;19.83;;;;;;;4.49;90.25;99909.03;3164385;28;20108;-73
2023/12/09 01:02:24;;;;;;;39.75;17.23;;;;;;;4.38;90.23;99890.34;3162195;28;20047;-70
2023/12/09 01:03:55;;;;;;;45.97;19.58;;;;;;;4.49;90.16;99903.88;3159777;28;20103;-70
2023/12/09 01:05:28;;;;;;;42.15;18.63;;;;;;;4.54;90.25;99912.41;3157445;28;20096;-72
2023/12/09 01:06:59;;;;;;;41.38;18.60;;;;;;;4.50;90.23;99901.28;3163833;28;20320;-72
2023/12/09 01:08:31;;;;;;;39.65;18.17;;;;;;;4.54;90.28;99912.41;3162374;28;20060;-72
2023/12/09 01:10:01;;;;;;;39.58;17.70;;;;;;;4.55;90.16;99914.97;3153391;28;20150;-71
2023/12/09 01:11:33;;;;;;;44.42;19.63;;;;;;;4.56;90.30;99923.53;3157588;28;20051;-72
2023/12/09 01:13:04;;;;;;;39.90;18.15;;;;;;;4.56;90.02;99914.06;3158950;28;20063;-70
2023/12/09 01:14:36;;;;;;;41.78;19.17;;;;;;;4.56;89.97;99911.50;3160727;28;20052;-68
2023/12/09 01:16:07;;;;;;;42.15;18.92;;;;;;;4.56;90.12;99911.50;3157340;28;20114;-68
2023/12/09 01:17:39;;;;;;;39.90;18.02;;;;;;;4.57;89.96;99913.19;3153379;28;20059;-68
2023/12/09 01:19:10;;;;;;;46.22;19.33;;;;;;;4.59;90.17;99913.16;3151508;28;20138;-68
2023/12/09 01:20:43;;;;;;;42.25;19.48;;;;;;;4.53;89.84;99900.38;3151850;28;20135;-67
2023/12/09 01:22:14;;;;;;;44.38;19.35;;;;;;;4.55;89.90;99906.34;3151395;28;20048;-66
2023/12/09 01:23:46;;;;;;;49.20;20.50;;;;;;;4.55;89.87;99902.06;3156394;28;20160;-67
2023/12/09 01:25:17;;;;;;;47.00;20.90;;;;;;;4.57;89.79;99907.19;3164085;28;20378;-67
2023/12/09 01:26:49;;;;;;;49.47;21.35;;;;;;;4.57;89.87;99905.44;3154858;28;20600;-67
2023/12/09 01:28:20;;;;;;;44.70;21.02;;;;;;;4.57;89.79;99904.59;3163322;28;20852;-67
2023/12/09 01:29:52;;;;;;;45.78;19.90;;;;;;;4.57;89.96;99909.75;3159308;28;20116;-67
2023/12/09 01:31:22;;;;;;;49.38;21.13;;;;;;;4.56;89.92;99903.75;3154742;28;20488;-67
2023/12/09 01:32:54;;;;;;;52.53;21.35;;;;;;;4.54;89.81;99902.06;3154554;28;20067;-67
2023/12/09 01:34:25;;;;;;;53.47;21.52;;;;;;;4.51;89.77;99902.13;3161739;28;20043;-68
2023/12/09 01:35:58;;;;;;;47.30;19.88;;;;;;;4.48;89.75;99899.63;3161950;28;20047;-67
2023/12/09 01:37:29;;;;;;;;;;;;;;;4.32;89.99;99896.47;3152089;28;20266;-68
2023/12/09 01:39:01;;;;;;;45.30;19.80;;;;;;;4.18;90.27;99864.94;3151629;28;19924;-67
2023/12/09 01:40:31;;;;;;;49.60;20.92;;;;;;;4.35;90.27;99893.84;3152477;28;20070;-67
2023/12/09 01:42:04;;;;;;;49.47;21.08;;;;;;;4.36;90.38;99892.09;3153911;28;20079;-67
2023/12/09 01:43:36;;;;;;;52.63;21.77;;;;;;;4.33;90.28;99896.44;3160632;28;20343;-67
2023/12/09 01:45:08;;;;;;;46.25;20.73;;;;;;;4.33;90.59;99899.00;3151585;28;20071;-67
2023/12/09 01:46:40;;;;;;;46.55;20.77;;;;;;;4.31;90.45;99890.44;3151586;28;20504;-67
2023/12/09 01:48:12;;;;;;;48.63;20.90;;;;;;;4.30;90.51;99888.75;3160343;28;20074;-67
2023/12/09 01:49:43;;;;;;;48.33;20.95;;;;;;;4.29;90.59;99892.22;3164232;28;20447;-67
2023/12/09 01:51:18;;;;;;;45.10;19.52;;;;;;;4.28;90.51;99890.50;3156374;28;20048;-67
2023/12/09 01:52:49;;;;;;;42.80;19.90;;;;;;;4.29;90.56;99893.97;3151356;28;20428;-69
2023/12/09 01:54:21;;;;;;;47.50;20.63;;;;;;;4.28;90.42;99887.09;3153970;28;20090;-67
2023/12/09 01:55:53;;;;;;;43.87;20.33;;;;;;;4.30;90.63;99893.06;3158191;28;20648;-67
2023/12/09 01:57:25;;;;;;;42.72;18.90;;;;;;;4.31;90.51;99887.03;3159165;28;20055;-67
2023/12/09 01:58:56;;;;;;;50.70;20.75;;;;;;;4.32;90.58;99883.59;3151303;28;20611;-68
2023/12/09 02:00:27;;;;;;;46.13;19.88;;;;;;;4.31;90.56;99880.13;3152642;28;20086;-70
2023/12/09 02:01:59;;;;;;;42.72;19.25;;;;;;;4.34;90.33;99880.06;3163579;28;20592;-68
2023/12/09 02:03:32;;;;;;;44.60;20.17;;;;;;;4.36;90.33;99882.66;3164015;28;20063;-68
2023/12/09 02:05:03;;;;;;;47.92;20.10;;;;;;;4.34;90.21;99884.38;3163264;28;20535;-68
2023/12/09 02:06:36;;;;;;;45.97;19.63;;;;;;;4.36;90.25;99877.50;3164169;28;20119;-67
2023/12/09 02:08:07;;;;;;;43.85;19.40;;;;;;;4.36;90.23;99874.06;3151584;28;20192;-66
2023/12/09 02:09:40;;;;;;;39.60;18.10;;;;;;;4.37;90.30;99878.34;3157690;28;20193;-68
2023/12/09 02:11:22;;;;;;;41.63;18.25;;;;;;;4.36;90.28;99871.47;3156113;28;20882;-68
2023/12/09 02:13:01;;;;;;;41.50;19.30;;;;;;;4.38;90.27;99874.88;3159735;28;20564;-68
2023/12/09 02:14:45;;;;;;;50.28;19.85;;;;;;;4.38;90.26;99870.59;3166106;28;20083;-68
2023/12/09 02:16:23;;;;;;;41.53;18.42;;;;;;;4.07;90.32;99823.88;3154032;28;20595;-68
2023/12/09 02:17:59;;;;;;;42.40;18.10;;;;;;;4.25;90.18;99854.47;3153916;28;20163;-69
2023/12/09 02:19:30;;;;;;;48.97;19.65;;;;;;;4.34;90.10;99869.75;3153944;28;20113;-68
2023/12/09 02:21:01;;;;;;;39.78;18.08;;;;;;;4.37;90.04;99875.75;3153746;28;20148;-68
2023/12/09 02:22:34;;;;;;;42.25;19.45;;;;;;;4.39;90.07;99876.59;3153868;28;20052;-68
2023/12/09 02:24:07;;;;;;;42.78;18.63;;;;;;;4.39;89.95;99876.59;3156890;28;20048;-68
2023/12/09 02:25:39;;;;;;;43.03;18.85;;;;;;;4.05;89.92;99823.06;3162966;28;20052;-68
2023/12/09 02:27:13;;;;;;;41.65;17.70;;;;;;;4.35;89.83;99873.22;3156426;28;20048;-68
2023/12/09 02:28:51;;;;;;;43.92;18.60;;;;;;;4.31;90.04;99874.97;3166244;28;20062;-68
2023/12/09 02:30:30;;;;;;;40.22;19.00;;;;;;;4.33;89.88;99878.38;3157145;28;20143;-69
2023/12/09 02:32:04;;;;;;;39.38;17.15;;;;;;;4.29;90.06;99887.06;3153402;28;20474;-71
2023/12/09 02:33:37;;;;;;;40.85;17.80;;;;;;;4.28;89.83;99889.66;3162479;28;20051;-71
2023/12/09 02:35:11;;;;;;;40.88;18.27;;;;;;;4.24;89.92;99883.72;3162880;28;20512;-72
2023/12/09 02:36:45;;;;;;;36.92;17.70;;;;;;;4.25;89.96;99884.56;3165747;28;20836;-68
2023/12/09 02:38:18;;;;;;;41.33;18.63;;;;;;;4.23;89.88;99889.75;3166002;28;20067;-68
2023/12/09 02:39:50;;;;;;;36.88;18.40;;;;;;;4.22;89.72;99895.78;3155257;28;20043;-67
2023/12/09 02:41:23;;;;;;;38.10;17.73;;;;;;;4.19;89.88;99890.66;3156812;28;20150;-68
2023/12/09 02:42:55;;;;;;;42.42;18.67;;;;;;;4.19;89.88;99894.97;3159940;28;20048;-69
2023/12/09 02:44:27;;;;;;;43.75;17.75;;;;;;;4.01;89.59;99865.22;3158731;28;20044;-68
2023/12/09 02:45:58;;;;;;;37.60;17.88;;;;;;;4.15;89.85;99891.63;3153206;28;20056;-68
2023/12/09 02:47:30;;;;;;;39.15;17.83;;;;;;;4.14;89.73;99900.22;3153803;28;20079;-68
2023/12/09 02:49:01;;;;;;;35.72;17.35;;;;;;;4.12;89.56;99893.41;3153375;28;20622;-68
2023/12/09 02:50:33;;;;;;;38.97;17.67;;;;;;;4.13;89.66;99902.81;3154600;28;20112;-68
2023/12/09 02:52:05;;;;;;;36.05;17.80;;;;;;;4.07;89.65;99896.03;3166159;28;20047;-68
2023/12/09 02:53:37;;;;;;;36.90;17.77;;;;;;;4.06;89.31;99900.34;3166080;28;20499;-69
2023/12/09 02:55:10;;;;;;;37.28;17.17;;;;;;;4.07;89.43;99896.88;3153054;28;20332;-68
2023/12/09 02:56:43;;;;;;;37.33;18.13;;;;;;;4.04;89.44;99891.78;3165087;28;20139;-69
2023/12/09 02:58:15;;;;;;;37.63;18.00;;;;;;;3.98;89.48;99883.31;3154631;28;20055;-69
2023/12/09 02:59:46;;;;;;;43.28;19.13;;;;;;;3.94;89.46;99881.69;3153621;28;20565;-69
2023/12/09 03:01:18;;;;;;;37.13;17.35;;;;;;;3.53;89.48;99823.97;3162810;28;20047;-69
2023/12/09 03:02:49;;;;;;;40.88;18.05;;;;;;;3.97;89.47;99904.81;3157091;28;20055;-70
2023/12/09 03:04:21;;;;;;;35.17;16.88;;;;;;;3.95;89.31;99904.84;3161310;28;20074;-70
2023/12/09 03:05:52;;;;;;;44.10;18.02;;;;;;;3.94;89.32;99902.28;3158416;28;20519;-69
2023/12/09 03:07:23;;;;;;;39.13;18.27;;;;;;;3.87;89.25;99899.81;3153016;28;20052;-70
2023/12/09 03:08:54;;;;;;;41.28;18.00;;;;;;;3.90;89.07;99908.34;3160711;28;20066;-70
2023/12/09 03:10:27;;;;;;;38.00;16.85;;;;;;;3.90;89.16;99901.47;3154382;28;20047;-70
2023/12/09 03:11:58;;;;;;;39.00;17.55;;;;;;;3.87;89.15;99899.81;3162101;28;20568;-69
2023/12/09 03:13:30;;;;;;;36.95;17.00;;;;;;;3.86;89.11;99905.81;3160636;28;20128;-69
2023/12/09 03:15:05;;;;;;;36.03;18.17;;;;;;;3.86;89.21;99903.25;3156644;28;20507;-69
2023/12/09 03:16:37;;;;;;;44.97;17.75;;;;;;;3.78;89.07;99888.78;3157219;28;20055;-69
2023/12/09 03:18:08;;;;;;;38.35;16.98;;;;;;;3.84;89.03;99905.00;3152983;28;20059;-69
2023/12/09 03:19:40;;;;;;;39.58;18.52;;;;;;;3.82;89.01;99904.19;3153889;28;20067;-69
2023/12/09 03:21:14;;;;;;;33.47;16.73;;;;;;;3.82;88.64;99906.75;3165856;28;20516;-69
2023/12/09 03:22:46;;;;;;;37.97;17.30;;;;;;;3.78;88.93;99901.66;3165601;28;20062;-68
2023/12/09 03:24:16;;;;;;;34.15;17.23;;;;;;;3.75;88.91;99904.28;3163436;28;20054;-69
2023/12/09 03:25:50;;;;;;;38.60;18.42;;;;;;;3.74;89.30;99902.59;3158752;28;20055;-69
2023/12/09 03:27:20;;;;;;;;;;;;;;;3.58;89.25;99907.13;3165918;28;20059;-70
2023/12/09 03:28:52;;;;;;;34.10;15.85;;;;;;;3.59;89.57;99907.13;3165743;28;19966;-69
2023/12/09 03:30:23;;;;;;;42.65;19.35;;;;;;;3.62;89.43;99911.38;3165408;28;20070;-69
2023/12/09 03:31:55;;;;;;;42.10;18.63;;;;;;;3.61;89.29;99902.78;3165931;28;20086;-70
2023/12/09 03:33:26;;;;;;;44.42;20.60;;;;;;;3.60;89.38;99905.38;3158539;28;20501;-69
2023/12/09 03:34:58;;;;;;;42.65;19.08;;;;;;;3.58;89.28;99902.84;3156862;28;20043;-69
2023/12/09 03:36:28;;;;;;;39.80;18.48;;;;;;;3.54;89.42;99900.31;3160441;28;20060;-70
2023/12/09 03:38:00;;;;;;;39.83;17.63;;;;;;;3.57;89.24;99906.28;3157045;28;20051;-70
2023/12/09 03:39:31;;;;;;;42.65;19.17;;;;;;;3.55;89.32;99904.59;3156783;28;20096;-70
2023/12/09 03:41:05;;;;;;;39.58;17.90;;;;;;;3.55;89.28;99897.75;3161412;28;20080;-69
2023/12/09 03:42:36;;;;;;;39.55;17.48;;;;;;;3.49;89.26;99890.13;3165415;28;20506;-70
2023/12/09 03:44:08;;;;;;;34.95;16.50;;;;;;;3.51;89.29;99895.22;3157263;28;20080;-69
2023/12/09 03:45:41;;;;;;;36.55;15.98;;;;;;;3.45;89.25;99890.16;3159049;28;20056;-70
2023/12/09 03:47:13;;;;;;;43.17;17.98;;;;;;;3.51;89.33;99901.22;3152978;28;20052;-68
2023/12/09 03:48:43;;;;;;;37.35;17.55;;;;;;;3.51;89.35;99903.78;3152990;28;20510;-69
2023/12/09 03:50:15;;;;;;;36.80;17.10;;;;;;;3.51;89.22;99905.53;3153085;28;20143;-69
2023/12/09 03:51:46;;;;;;;36.03;16.05;;;;;;;3.51;89.43;99905.53;3161861;28;20120;-67
2023/12/09 03:53:18;;;;;;;41.80;18.25;;;;;;;3.51;89.21;99908.09;3163480;28;20473;-65
2023/12/09 03:54:49;;;;;;;36.00;15.52;;;;;;;3.48;89.21;99905.56;3165581;28;20047;-66
2023/12/09 03:56:22;;;;;;;38.40;16.17;;;;;;;3.45;89.38;99908.19;3164739;28;20131;-67
2023/12/09 03:57:53;;;;;;;35.70;15.43;;;;;;;3.40;89.39;99906.53;3156967;28;20058;-66
2023/12/09 03:59:25;;;;;;;38.97;16.40;;;;;;;3.35;89.58;99903.16;3152875;28;20052;-65
2023/12/09 04:00:55;;;;;;;36.97;15.43;;;;;;;3.35;89.64;99904.91;3155942;28;20052;-67
2023/12/09 04:02:27;;;;;;;35.17;14.95;;;;;;;3.33;89.61;99904.91;3159364;28;20063;-68
2023/12/09 04:03:58;;;;;;;27.60;14.00;;;;;;;3.30;89.49;99906.69;3157615;28;20063;-68
2023/12/09 04:05:30;;;;;;;30.50;14.23;;;;;;;3.28;89.71;99905.84;3164843;28;20048;-69
2023/12/09 04:07:01;;;;;;;24.90;11.82;;;;;;;3.22;89.68;99914.50;3164993;28;20055;-68
2023/12/09 04:08:33;;;;;;;26.35;12.30;;;;;;;3.17;89.78;99912.00;3164949;28;20136;-68
2023/12/09 04:10:05;;;;;;;28.38;13.73;;;;;;;3.14;89.95;99906.91;3154886;28;20155;-69
2023/12/09 04:11:38;;;;;;;25.00;12.10;;;;;;;3.11;90.09;99911.25;3153748;28;20074;-68
2023/12/09 04:13:09;;;;;;;24.23;12.50;;;;;;;3.04;90.14;99913.00;3153686;28;20079;-68
2023/12/09 04:14:41;;;;;;;23.38;11.68;;;;;;;3.06;90.14;99920.72;3156749;28;20831;-69
2023/12/09 04:16:12;;;;;;;25.27;12.32;;;;;;;2.70;90.02;99868.88;3159406;28;20056;-68
2023/12/09 04:17:44;;;;;;;28.88;12.23;;;;;;;2.97;90.16;99919.13;3152621;28;20139;-67
2023/12/09 04:19:15;;;;;;;23.33;11.65;;;;;;;2.91;90.31;99916.63;3163152;28;20515;-68
2023/12/09 04:20:47;;;;;;;23.58;12.77;;;;;;;2.87;90.55;99917.50;3155564;28;20146;-66
2023/12/09 04:22:17;;;;;;;26.48;13.32;;;;;;;2.83;90.64;99924.41;3164761;28;20051;-67
2023/12/09 04:23:49;;;;;;;27.42;12.93;;;;;;;2.82;90.62;99925.28;3165133;28;20070;-68
2023/12/09 04:25:24;;;;;;;29.48;13.70;;;;;;;2.81;90.69;99925.31;3164952;28;20060;-69
2023/12/09 04:26:56;;;;;;;30.17;13.85;;;;;;;2.76;90.64;99927.94;3157824;28;20055;-67
2023/12/09 04:28:28;;;;;;;29.30;13.95;;;;;;;2.77;90.89;99926.22;3158552;28;20086;-68
2023/12/09 04:29:59;;;;;;;32.03;13.35;;;;;;;2.26;90.91;99844.50;3159385;28;20155;-68
2023/12/09 04:31:31;;;;;;;32.17;13.88;;;;;;;2.76;90.99;99927.09;3154217;28;20059;-68
2023/12/09 04:33:02;;;;;;;27.65;14.07;;;;;;;2.74;91.05;99922.81;3159188;28;20056;-68
2023/12/09 04:34:35;;;;;;;29.65;14.18;;;;;;;2.77;91.03;99932.19;3161795;28;20115;-65
2023/12/09 04:36:06;;;;;;;35.03;14.68;;;;;;;2.76;91.07;99922.81;3158789;28;20051;-65
2023/12/09 04:37:38;;;;;;;29.75;13.55;;;;;;;2.77;90.93;99921.91;3160336;28;20052;-66
2023/12/09 04:39:10;;;;;;;30.67;14.20;;;;;;;2.73;90.98;99917.69;3152285;28;20078;-66
2023/12/09 04:40:42;;;;;;;31.60;14.23;;;;;;;2.73;91.00;99923.69;3152634;28;20549;-66
2023/12/09 04:42:14;;;;;;;33.15;14.05;;;;;;;2.70;90.90;99925.44;3154037;28;20079;-66
2023/12/09 04:43:46;;;;;;;32.08;13.68;;;;;;;2.63;91.05;99923.78;3163755;28;20124;-66
2023/12/09 04:45:17;;;;;;;29.80;13.20;;;;;;;2.68;91.19;99929.75;3154614;28;20052;-67
2023/12/09 04:46:49;;;;;;;33.63;13.95;;;;;;;2.33;91.01;99869.28;3154967;28;20059;-67
2023/12/09 04:48:20;;;;;;;31.58;14.07;;;;;;;2.69;91.09;99923.72;3164430;28;20070;-67
2023/12/09 04:49:52;;;;;;;31.20;13.63;;;;;;;2.72;90.96;99933.97;3162339;28;20051;-67
2023/12/09 04:51:23;;;;;;;29.98;13.93;;;;;;;2.74;91.09;99932.25;3151940;28;20799;-67
2023/12/09 04:52:55;;;;;;;32.92;14.52;;;;;;;2.76;91.07;99933.09;3162106;28;20500;-67
2023/12/09 04:54:25;;;;;;;36.78;14.25;;;;;;;2.78;91.06;99931.34;3155068;28;20508;-67
2023/12/09 04:55:57;;;;;;;33.70;14.77;;;;;;;2.81;90.86;99933.91;3157486;28;20054;-66
2023/12/09 04:57:29;;;;;;;38.40;14.70;;;;;;;2.83;90.78;99937.28;3156679;28;20047;-66
2023/12/09 04:59:01;;;;;;;34.65;15.13;;;;;;;2.62;90.74;99909.25;3163281;28;20883;-66
2023/12/09 05:00:32;;;;;;;36.38;15.30;;;;;;;2.83;90.82;99942.41;3160162;28;20282;-66
2023/12/09 05:02:04;;;;;;;33.72;14.40;;;;;;;2.80;90.76;99932.16;3159261;28;20524;-66
2023/12/09 05:03:35;;;;;;;31.55;13.38;;;;;;;2.85;90.88;99935.53;3151815;28;20444;-66
2023/12/09 05:05:07;;;;;;;36.92;15.70;;;;;;;2.80;90.65;99934.75;3155842;28;20043;-66
2023/12/09 05:06:38;;;;;;;42.40;15.93;;;;;;;2.81;90.65;99939.03;3164307;28;20044;-66
2023/12/09 05:08:09;;;;;;;36.25;15.48;;;;;;;2.83;90.72;99952.72;3164022;28;20579;-66
2023/12/09 05:09:40;;;;;;;45.67;16.42;;;;;;;2.70;90.68;99925.44;3153137;28;20052;-67
2023/12/09 05:11:12;;;;;;;37.80;16.20;;;;;;;2.81;90.70;99938.16;3156816;28;20142;-66
2023/12/09 05:12:44;;;;;;;42.88;16.65;;;;;;;2.83;90.66;99941.56;3157470;28;20059;-66
2023/12/09 05:14:16;;;;;;;32.42;14.27;;;;;;;2.84;90.74;99941.56;3164118;28;20092;-65
2023/12/09 05:15:48;;;;;;;40.75;16.05;;;;;;;2.83;90.63;99942.41;3161334;28;20530;-66
2023/12/09 05:17:20;;;;;;;34.10;14.40;;;;;;;2.83;90.67;99951.88;3156006;28;20062;-65
2023/12/09 05:18:52;;;;;;;40.65;14.65;;;;;;;2.81;90.75;99944.19;3163274;28;20054;-66
2023/12/09 05:20:22;;;;;;;37.28;14.85;;;;;;;2.62;90.75;99924.66;3164626;28;20062;-67
2023/12/09 05:21:54;;;;;;;36.05;14.57;;;;;;;2.80;90.74;99951.91;3157768;28;20048;-66
2023/12/09 05:23:25;;;;;;;34.50;14.60;;;;;;;2.79;90.67;99956.19;3156683;28;20470;-67
2023/12/09 05:24:57;;;;;;;35.28;14.27;;;;;;;2.77;90.80;99946.78;3163989;28;20127;-68
2023/12/09 05:26:31;;;;;;;34.90;14.98;;;;;;;2.79;90.77;99947.63;3155589;28;20075;-74
2023/12/09 05:28:07;;;;;;;36.33;14.48;;;;;;;2.79;90.66;99953.63;3154721;28;20055;-70
2023/12/09 05:29:43;;;;;;;34.50;14.82;;;;;;;2.73;90.87;99940.84;3162906;28;20146;-69
2023/12/09 05:31:15;;;;;;;38.22;15.38;;;;;;;2.77;90.75;99950.22;3151713;28;20537;-68
2023/12/09 05:32:46;;;;;;;36.22;15.27;;;;;;;2.75;90.66;99946.78;3152076;28;20511;-68
2023/12/09 05:34:17;;;;;;;32.42;14.07;;;;;;;2.78;90.60;99953.63;3158240;28;20058;-67
2023/12/09 05:35:48;;;;;;;32.20;13.75;;;;;;;2.73;90.48;99951.13;3153103;28;20083;-74
2023/12/09 05:37:20;;;;;;;37.92;14.73;;;;;;;2.77;90.60;99962.22;3151576;28;20173;-74
2023/12/09 05:38:51;;;;;;;38.80;13.98;;;;;;;2.77;90.51;99962.22;3151595;28;20051;-73
2023/12/09 05:40:23;;;;;;;40.38;15.07;;;;;;;2.75;90.52;99964.78;3152203;28;20147;-71
2023/12/09 05:41:53;;;;;;;39.20;15.77;;;;;;;2.75;90.42;99969.94;3163281;28;20062;-73
2023/12/09 05:43:26;;;;;;;42.95;15.80;;;;;;;2.70;90.31;99962.28;3162417;28;20060;-72
2023/12/09 05:44:58;;;;;;;41.42;14.77;;;;;;;2.70;90.36;99972.56;3160641;28;20043;-73
2023/12/09 05:46:30;;;;;;;30.77;13.02;;;;;;;2.65;90.25;99969.19;3161297;28;20115;-81
2023/12/09 05:48:01;;;;;;;36.97;15.15;;;;;;;2.61;90.38;99972.66;3162274;28;20055;-77
2023/12/09 05:49:33;;;;;;;39.35;14.27;;;;;;;2.56;90.47;99968.44;3162317;28;20051;-66
2023/12/09 05:51:04;;;;;;;33.28;13.35;;;;;;;2.56;90.63;99971.00;3162854;28;20047;-65
2023/12/09 05:52:36;;;;;;;35.33;14.02;;;;;;;2.52;90.88;99969.34;3163030;28;20059;-66
2023/12/09 05:54:07;;;;;;;37.63;14.70;;;;;;;2.47;91.14;99969.38;3161733;28;20112;-65
2023/12/09 05:55:38;;;;;;;33.95;14.63;;;;;;;2.49;91.23;99962.50;3163005;28;20279;-65
2023/12/09 05:57:10;;;;;;;37.85;14.23;;;;;;;2.48;91.37;99966.81;3155462;28;20473;-68
2023/12/09 05:58:43;;;;;;;36.58;14.52;;;;;;;2.50;91.32;99967.63;3160544;28;20052;-68
2023/12/09 06:00:15;;;;;;;35.25;14.10;;;;;;;2.49;91.06;99968.50;3161624;28;20047;-68
2023/12/09 06:01:46;;;;;;;35.38;13.02;;;;;;;2.46;91.05;99968.53;3157604;28;20044;-68
2023/12/09 06:03:18;;;;;;;36.85;13.82;;;;;;;2.45;90.91;99959.09;3156164;28;20523;-67
2023/12/09 06:04:48;;;;;;;98.95;43.70;;;;;;;2.44;91.00;99959.97;3159230;28;20075;-67
2023/12/09 06:06:20;;;;;;;87.93;35.17;;;;;;;2.46;90.79;99967.69;3163077;28;20055;-68
2023/12/09 06:07:52;;;;;;;42.78;18.92;;;;;;;2.44;90.58;99959.13;3154082;28;20044;-69
2023/12/09 06:09:24;;;;;;;110.50;46.03;;;;;;;2.44;90.46;99964.25;3161940;28;20059;-63
2023/12/09 06:10:54;;;;;;;48.28;20.40;;;;;;;2.44;90.60;99964.25;3162306;28;20083;-66
2023/12/09 06:12:26;;;;;;;58.30;24.10;;;;;;;2.43;90.54;99970.28;3159125;28;20055;-70
2023/12/09 06:13:58;;;;;;;47.83;20.42;;;;;;;2.41;90.66;99969.44;3159054;28;20063;-66
2023/12/09 06:15:30;;;;;;;42.08;16.27;;;;;;;2.34;90.64;99968.66;3162926;28;20043;-67
2023/12/09 06:17:01;;;;;;;37.47;15.32;;;;;;;2.41;90.73;99983.13;3159827;28;20048;-68
2023/12/09 06:18:34;;;;;;;39.20;14.10;;;;;;;2.40;90.73;99984.00;3157732;28;20500;-68
2023/12/09 06:20:08;;;;;;;45.47;18.52;;;;;;;2.39;90.92;99979.72;3161749;28;20598;-69
2023/12/09 06:21:40;;;;;;;188.77;78.68;;;;;;;2.40;91.01;99984.00;3166924;28;20047;-71
2023/12/09 06:23:12;;;;;;;86.85;38.45;;;;;;;2.43;91.15;99994.25;3161971;28;20066;-68
2023/12/09 06:24:43;;;;;;;69.43;27.35;;;;;;;2.47;91.14;99995.94;3163548;28;20118;-66
2023/12/09 06:26:15;;;;;;;91.30;36.53;;;;;;;2.50;91.21;99995.91;3155563;28;20091;-69
2023/12/09 06:27:47;;;;;;;104.70;45.13;;;;;;;2.56;91.05;100004.44;3162286;28;20047;-67
2023/12/09 06:29:20;;;;;;;54.33;22.13;;;;;;;2.59;90.97;100009.53;3154719;28;20052;-70
2023/12/09 06:30:50;;;;;;;41.08;15.52;;;;;;;2.45;90.61;99977.09;3167674;28;20071;-74
2023/12/09 06:32:22;;;;;;;36.08;15.38;;;;;;;2.58;90.85;99998.41;3168797;28;20051;-74
2023/12/09 06:33:53;;;;;;;37.58;15.27;;;;;;;2.59;90.62;99994.97;3167099;28;20491;-75
2023/12/09 06:35:24;;;;;;;37.63;13.80;;;;;;;2.64;90.76;100003.50;3163529;28;20148;-71
2023/12/09 06:36:55;;;;;;;33.08;14.20;;;;;;;2.65;90.66;100004.34;3163313;28;20096;-71
2023/12/09 06:38:27;;;;;;;34.38;14.55;;;;;;;2.67;90.73;100013.75;3156115;28;20044;-69
2023/12/09 06:39:58;;;;;;;33.65;13.52;;;;;;;2.69;90.57;100013.72;3156036;28;20052;-72
2023/12/09 06:41:30;;;;;;;36.70;14.10;;;;;;;2.68;90.48;100012.88;3166253;28;20126;-71
2023/12/09 06:43:00;;;;;;;36.17;14.77;;;;;;;2.67;90.61;100018.03;3168956;28;20489;-70
2023/12/09 06:44:33;;;;;;;52.70;21.23;;;;;;;2.70;90.69;100018.84;3165570;28;20051;-77
2023/12/09 06:46:04;;;;;;;50.72;19.40;;;;;;;2.67;90.48;100018.03;3158011;28;20051;-76
2023/12/09 06:47:36;;;;;;;38.65;15.48;;;;;;;2.73;90.45;100015.41;3159866;28;20067;-69
2023/12/09 06:49:07;;;;;;;36.13;13.48;;;;;;;2.67;90.48;100006.03;3167900;28;20468;-70
2023/12/09 06:50:39;;;;;;;35.88;13.98;;;;;;;2.72;90.41;100013.69;3156695;28;20052;-69
2023/12/09 06:52:09;;;;;;;33.05;13.95;;;;;;;2.57;90.38;99990.69;3156371;28;20043;-70
2023/12/09 06:53:41;;;;;;;36.10;14.15;;;;;;;2.75;90.37;100021.38;3156633;28;20128;-72
2023/12/09 06:55:12;;;;;;;32.35;13.60;;;;;;;2.74;90.35;100019.66;3156402;28;20055;-74
2023/12/09 06:56:44;;;;;;;39.67;14.20;;;;;;;2.75;90.37;100021.38;3158260;28;20448;-73
2023/12/09 06:58:16;;;;;;;34.58;14.30;;;;;;;2.78;90.43;100025.63;3167050;28;20107;-75
2023/12/09 06:59:49;;;;;;;29.30;12.93;;;;;;;2.77;90.23;100019.66;3171428;28;20051;-70
2023/12/09 07:01:21;;;;;;;33.70;12.82;;;;;;;2.82;90.16;100027.31;3164874;28;20438;-70
2023/12/09 07:02:52;;;;;;;34.58;13.60;;;;;;;2.84;90.19;100031.59;3158552;28;20054;-75
2023/12/09 07:04:24;;;;;;;35.60;13.38;;;;;;;2.79;90.04;100014.50;3165036;28;20102;-72
2023/12/09 07:05:55;;;;;;;34.80;14.43;;;;;;;2.85;89.93;100030.72;3159960;28;20050;-70
2023/12/09 07:07:26;;;;;;;39.58;14.93;;;;;;;2.85;89.83;100028.16;3163990;28;20084;-69